Time;durP1;ratioP1;P1;durP2;ratioP2;P2;SDS_P1;SDS_P2;PMS_P1;PMS_P2;Temp;Humidity;BMP_temperature;BMP_pressure;BME280_temperature;BME280_humidity;BME280_pressure;Samples;Min_cycle;Max_cycle;Signal;HPM_P1;HPM_P2
2021/11/18 00:01:33;;;;;;;;;;;;;;;13.50;100.00;102470.09;5056561;28;20090;-55
2021/11/18 00:04:08;;;;;;;;;;;;;;;12.86;100.00;102466.38;5055720;28;19917;-53
2021/11/18 00:06:33;;;;;;;;;;;;;;;12.95;100.00;102456.47;5055895;28;19920;-54
2021/11/18 00:08:59;;;;;;;;;;;;;;;13.13;100.00;102464.31;5056002;28;19931;-50
2021/11/18 00:11:24;;;;;;;;;;;;;;;12.95;100.00;102457.31;5055673;28;19921;-52
2021/11/18 00:13:51;;;;;;;;;;;;;;;12.99;100.00;102464.03;5056457;28;20027;-49
2021/11/18 00:16:17;;;;;;;;;;;;;;;13.17;100.00;102466.47;5054086;28;20042;-53
2021/11/18 00:18:43;;;;;;;;;;;;;;;13.12;100.00;102479.59;5054975;28;19952;-51
2021/11/18 00:21:11;;;;;;;;;;;;;;;12.69;100.00;102474.50;5056094;28;19917;-49
2021/11/18 00:23:38;;;;;;;;;;;;;;;12.72;100.00;102487.56;5087662;28;20007;-50
2021/11/18 00:26:04;;;;;;;;;;;;;;;12.91;100.00;102494.41;5071030;28;20305;-53
2021/11/18 00:28:30;;;;;;;;;;;;;;;12.61;100.00;102499.50;5055562;28;20311;-51
2021/11/18 00:30:55;;;;;;;;;;;;;;;13.05;100.00;102494.75;5055532;28;19920;-49
2021/11/18 00:33:21;;;;;;;;;;;;;;;12.97;100.00;102500.09;5053680;28;20380;-50
2021/11/18 00:35:48;;;;;;;;;;;;;;;13.12;100.00;102508.28;5070746;28;20015;-52
2021/11/18 00:38:16;;;;;;;;;;;;;;;13.13;100.00;102509.97;5055668;28;20367;-54
2021/11/18 00:40:43;;;;;;;;;;;;;;;13.15;100.00;102511.50;5055608;28;19963;-52
2021/11/18 00:43:10;;;;;;;;;;;;;;;12.73;100.00;102505.34;5053711;28;19924;-50
2021/11/18 00:45:35;;;;;;;;;;;;;;;12.87;100.00;102495.78;5054110;28;19917;-50
2021/11/18 00:48:01;;;;;;;;;;;;;;;12.77;100.00;102497.78;5070179;28;19939;-51
2021/11/18 00:50:28;;;;;;;;;;;;;;;13.01;100.00;102506.81;5055573;28;19971;-50
2021/11/18 00:52:54;;;;;;;;;;;;;;;13.05;100.00;102492.06;5055147;28;19920;-49
2021/11/18 00:55:20;;;;;;;;;;;;;;;12.85;100.00;102500.47;5054810;28;20385;-51
2021/11/18 00:57:46;;;;;;;;;;;;;;;12.93;100.00;102501.47;5054755;28;19916;-53
2021/11/18 01:00:22;;;;;;;;;;;;;;;12.65;100.00;102489.22;5054707;28;19928;-53
2021/11/18 01:02:49;;;;;;;;;;;;;;;12.59;100.00;102481.88;5053799;28;20350;-49
2021/11/18 01:05:14;;;;;;;;;;;;;;;12.45;100.00;102478.00;5053614;28;19920;-49
2021/11/18 01:07:41;;;;;;;;;;;;;;;13.00;100.00;102481.81;5070037;28;19944;-51
2021/11/18 01:10:08;;;;;;;;;;;;;;;12.70;100.00;102481.53;5054784;28;19994;-49
2021/11/18 01:12:38;;;;;;;;;;;;;;;13.17;100.00;102477.22;5088046;28;19912;-50
2021/11/18 01:15:05;;;;;;;;;;;;;;;13.07;100.00;102481.13;5053996;28;19920;-54
2021/11/18 01:17:30;;;;;;;;;;;;;;;13.04;100.00;102490.38;5054764;28;19928;-50
2021/11/18 01:19:57;;;;;;;;;;;;;;;12.93;100.00;102499.63;5086880;28;19921;-49
2021/11/18 01:22:22;;;;;;;;;;;;;;;13.09;100.00;102492.53;5070760;28;19982;-53
2021/11/18 01:24:48;;;;;;;;;;;;;;;12.87;100.00;102489.53;5054056;28;20061;-54
2021/11/18 01:27:19;;;;;;;;;;;;;;;12.69;100.00;102498.66;5054058;28;19939;-51
2021/11/18 01:29:45;;;;;;;;;;;;;;;12.97;100.00;102492.06;5052966;28;20360;-52
2021/11/18 01:32:11;;;;;;;;;;;;;;;13.11;100.00;102498.56;5087334;28;20017;-55
2021/11/18 01:34:40;;;;;;;;;;;;;;;13.04;100.00;102504.63;5086786;28;19920;-51
2021/11/18 01:37:06;;;;;;;;;;;;;;;13.16;100.00;102517.72;5053215;28;19917;-51
2021/11/18 01:39:31;;;;;;;;;;;;;;;13.04;100.00;102519.91;5086588;28;19920;-51
2021/11/18 01:41:58;;;;;;;;;;;;;;;13.22;100.00;102524.22;5052753;28;19925;-55
2021/11/18 01:44:27;;;;;;;;;;;;;;;13.27;100.00;102521.88;5052925;28;20345;-52
2021/11/18 01:46:53;;;;;;;;;;;;;;;13.38;100.00;102529.56;5086265;28;19924;-54
2021/11/18 01:49:23;;;;;;;;;;;;;;;13.48;100.00;102534.78;5052496;28;20299;-50
2021/11/18 01:51:50;;;;;;;;;;;;;;;13.41;100.00;102536.44;5054197;28;20010;-53
2021/11/18 01:54:17;;;;;;;;;;;;;;;14.03;100.00;102532.16;5053223;28;19938;-53
2021/11/18 01:56:45;;;;;;;;;;;;;;;13.84;100.00;102531.63;5052688;28;19917;-49
2021/11/18 01:59:15;;;;;;;;;;;;;;;13.63;100.00;102542.94;5052767;28;19917;-51
2021/11/18 02:01:47;;;;;;;;;;;;;;;13.78;100.00;102540.34;5086436;28;19916;-53
2021/11/18 02:04:28;;;;;;;;;;;;;;;13.64;100.00;102535.72;5086454;28;19923;-54
2021/11/18 02:07:06;;;;;;;;;;;;;;;13.39;100.00;102535.78;5052471;28;19955;-50
2021/11/18 02:09:35;;;;;;;;;;;;;;;13.29;100.00;102530.59;5086727;28;19921;-53
2021/11/18 02:12:04;;;;;;;;;;;;;;;13.55;100.00;102521.47;5085988;28;19953;-55
2021/11/18 02:14:29;;;;;;;;;;;;;;;13.23;100.00;102526.75;5085935;28;19913;-54
2021/11/18 02:16:56;;;;;;;;;;;;;;;13.68;100.00;102523.63;5053680;28;19928;-52
2021/11/18 02:19:22;;;;;;;;;;;;;;;13.64;100.00;102524.97;5086107;28;19913;-52
2021/11/18 02:21:48;;;;;;;;;;;;;;;13.52;100.00;102527.22;5052387;28;20194;-52
2021/11/18 02:24:24;;;;;;;;;;;;;;;13.47;100.00;102527.72;5085747;28;19917;-49
2021/11/18 02:26:58;;;;;;;;;;;;;;;13.72;100.00;102524.94;5052243;28;19917;-51
2021/11/18 02:29:24;;;;;;;;;;;;;;;13.64;100.00;102531.19;5052077;28;19924;-54
2021/11/18 02:31:53;;;;;;;;;;;;;;;13.66;100.00;102534.53;5052003;28;19921;-54
2021/11/18 02:34:21;;;;;;;;;;;;;;;13.42;100.00;102538.13;5053078;28;19917;-49
2021/11/18 02:36:47;;;;;;;;;;;;;;;13.48;100.00;102530.22;5085543;28;19924;-52
2021/11/18 02:39:12;;;;;;;;;;;;;;;13.80;100.00;102535.63;5052939;28;19916;-50
2021/11/18 02:41:39;;;;;;;;;;;;;;;13.34;100.00;102534.44;5084959;28;19921;-54
2021/11/18 02:44:06;;;;;;;;;;;;;;;13.57;100.00;102527.53;5052578;28;19976;-52
2021/11/18 02:46:32;;;;;;;;;;;;;;;13.60;100.00;102536.06;5052939;28;19919;-54
2021/11/18 02:48:57;;;;;;;;;;;;;;;13.58;100.00;102527.34;5053551;28;19924;-54
2021/11/18 02:51:25;;;;;;;;;;;;;;;13.96;100.00;102533.88;5052578;28;19967;-52
2021/11/18 02:53:54;;;;;;;;;;;;;;;14.15;100.00;102537.97;5052505;28;19931;-55
2021/11/18 02:56:20;;;;;;;;;;;;;;;13.48;100.00;102543.66;5051842;28;19920;-53
2021/11/18 02:58:47;;;;;;;;;;;;;;;13.67;100.00;102543.44;5085399;28;19917;-51
2021/11/18 03:01:15;;;;;;;;;;;;;;;13.50;100.00;102534.63;5053256;28;20133;-49
2021/11/18 03:03:41;;;;;;;;;;;;;;;13.65;100.00;102526.66;5052985;28;20024;-49
2021/11/18 03:06:07;;;;;;;;;;;;;;;13.75;100.00;102530.81;5051575;28;20349;-54
2021/11/18 03:08:33;;;;;;;;;;;;;;;13.57;100.00;102522.97;5053472;28;19939;-51
2021/11/18 03:10:59;;;;;;;;;;;;;;;13.90;100.00;102521.97;5068330;28;20271;-50
2021/11/18 03:13:24;;;;;;;;;;;;;;;13.72;100.00;102522.25;5052891;28;19924;-53
2021/11/18 03:15:50;;;;;;;;;;;;;;;13.80;100.00;102524.88;5051925;28;20307;-50
2021/11/18 03:18:16;;;;;;;;;;;;;;;13.54;100.00;102535.94;5085124;28;19970;-49
2021/11/18 03:20:46;;;;;;;;;;;;;;;13.54;100.00;102531.38;5051448;28;20434;-54
2021/11/18 03:23:11;;;;;;;;;;;;;;;13.39;100.00;102533.94;5052870;28;19921;-52
2021/11/18 03:25:38;;;;;;;;;;;;;;;13.59;100.00;102544.31;5084741;28;19916;-51
2021/11/18 03:28:13;;;;;;;;;;;;;;;13.44;100.00;102541.50;5085625;28;19959;-47
2021/11/18 03:30:41;;;;;;;;;;;;;;;13.44;100.00;102538.81;5068586;28;19975;-49
2021/11/18 03:33:12;;;;;;;;;;;;;;;13.71;100.00;102536.69;5051478;28;20015;-52
2021/11/18 03:35:37;;;;;;;;;;;;;;;14.12;100.00;102536.50;5051466;28;19916;-54
2021/11/18 03:38:04;;;;;;;;;;;;;;;13.82;100.00;102543.53;5051494;28;20288;-52
2021/11/18 03:40:30;;;;;;;;;;;;;;;13.70;100.00;102537.72;5053007;28;20474;-51
2021/11/18 03:42:59;;;;;;;;;;;;;;;13.61;100.00;102537.75;5085367;28;19956;-48
2021/11/18 03:45:26;;;;;;;;;;;;;;;13.50;100.00;102540.81;5067746;28;20013;-50
2021/11/18 03:47:52;;;;;;;;;;;;;;;13.62;100.00;102544.81;5084888;28;19960;-52
2021/11/18 03:50:17;;;;;;;;;;;;;;;13.28;100.00;102547.75;5084468;28;19917;-51
2021/11/18 03:52:45;;;;;;;;;;;;;;;13.20;100.00;102553.97;5054444;28;19921;-52
2021/11/18 03:55:12;;;;;;;;;;;;;;;13.40;100.00;102548.22;5056628;28;19921;-49
2021/11/18 03:57:38;;;;;;;;;;;;;;;13.34;100.00;102555.94;5089465;28;19913;-53
2021/11/18 04:00:09;;;;;;;;;;;;;;;13.53;100.00;102545.84;5054887;28;19951;-49
2021/11/18 04:02:41;;;;;;;;;;;;;;;13.48;100.00;102548.22;5055993;28;20008;-51
2021/11/18 04:05:09;;;;;;;;;;;;;;;13.36;100.00;102549.53;5089015;28;19916;-53
2021/11/18 04:07:40;;;;;;;;;;;;;;;13.62;100.00;102543.97;5089118;28;20414;-55
2021/11/18 04:10:08;;;;;;;;;;;;;;;13.78;100.00;102548.41;5071175;28;19920;-50
2021/11/18 04:12:33;;;;;;;;;;;;;;;13.60;100.00;102548.66;5088298;28;19932;-54
2021/11/18 04:15:02;;;;;;;;;;;;;;;13.31;100.00;102553.59;5054949;28;19921;-51
2021/11/18 04:17:28;;;;;;;;;;;;;;;13.69;100.00;102542.25;5071046;28;19983;-50
2021/11/18 04:19:54;;;;;;;;;;;;;;;14.11;100.00;102542.88;5088683;28;20380;-53
2021/11/18 04:22:21;;;;;;;;;;;;;;;13.57;100.00;102538.28;5088035;28;19917;-54
2021/11/18 04:24:49;;;;;;;;;;;;;;;13.81;100.00;102528.44;5087883;28;20015;-55
2021/11/18 04:27:15;;;;;;;;;;;;;;;13.60;100.00;102535.22;5055480;28;20051;-51
2021/11/18 04:29:41;;;;;;;;;;;;;;;14.02;100.00;102530.50;5070616;28;19928;-51
2021/11/18 04:32:09;;;;;;;;;;;;;;;13.71;100.00;102534.00;5055419;28;19921;-54
2021/11/18 04:34:35;;;;;;;;;;;;;;;14.07;100.00;102536.19;5037849;28;19913;-51
2021/11/18 04:37:01;;;;;;;;;;;;;;;13.61;100.00;102535.06;5054578;28;19917;-53
2021/11/18 04:39:26;;;;;;;;;;;;;;;13.57;100.00;102541.78;5054676;28;19996;-50
2021/11/18 04:41:52;;;;;;;;;;;;;;;13.48;100.00;102540.16;5070545;28;19928;-52
2021/11/18 04:44:19;;;;;;;;;;;;;;;13.52;100.00;102543.34;5088445;28;19921;-53
2021/11/18 04:46:44;;;;;;;;;;;;;;;13.71;100.00;102542.06;5053826;28;20292;-49
2021/11/18 04:49:11;;;;;;;;;;;;;;;13.72;100.00;102538.38;5087428;28;20328;-53
2021/11/18 04:51:37;;;;;;;;;;;;;;;13.55;100.00;102532.25;5087199;28;19916;-54
2021/11/18 04:54:02;;;;;;;;;;;;;;;13.55;100.00;102530.38;5054054;28;19917;-50
2021/11/18 04:56:31;;;;;;;;;;;;;;;13.39;100.00;102538.47;5088186;28;20272;-52
2021/11/18 04:58:58;;;;;;;;;;;;;;;13.38;100.00;102536.78;5087452;28;19966;-49
2021/11/18 05:01:24;;;;;;;;;;;;;;;13.40;100.00;102540.97;5054755;28;20319;-52
2021/11/18 05:03:51;;;;;;;;;;;;;;;13.05;100.00;102532.34;5086681;28;19967;-54
2021/11/18 05:06:17;;;;;;;;;;;;;;;12.93;100.00;102534.53;5053930;28;20023;-53
2021/11/18 05:08:45;;;;;;;;;;;;;;;13.33;100.00;102524.69;5053665;28;19932;-53
2021/11/18 05:11:10;;;;;;;;;;;;;;;13.48;100.00;102510.59;5070320;28;19964;-51
2021/11/18 05:13:36;;;;;;;;;;;;;;;13.26;100.00;102512.97;5054869;28;19916;-50
2021/11/18 05:16:06;;;;;;;;;;;;;;;12.99;100.00;102523.09;5069976;28;20364;-53
2021/11/18 05:18:32;;;;;;;;;;;;;;;13.27;100.00;102536.16;5054241;28;19923;-52
2021/11/18 05:20:59;;;;;;;;;;;;;;;13.30;100.00;102538.47;5087548;28;19917;-50
2021/11/18 05:23:26;;;;;;;;;;;;;;;13.54;100.00;102531.38;5054377;28;19923;-52
2021/11/18 05:25:58;;;;;;;;;;;;;;;13.25;100.00;102532.78;5054017;28;20345;-50
2021/11/18 05:28:24;;;;;;;;;;;;;;;13.69;100.00;102530.66;5053247;28;19920;-51
2021/11/18 05:30:51;;;;;;;;;;;;;;;13.44;100.00;102530.75;5053850;28;19921;-52
2021/11/18 05:33:18;;;;;;;;;;;;;;;13.48;100.00;102521.34;5053553;28;19955;-50
2021/11/18 05:35:44;;;;;;;;;;;;;;;13.65;100.00;102523.97;5053141;28;19935;-52
2021/11/18 05:38:10;;;;;;;;;;;;;;;13.61;100.00;102532.38;5054923;28;19920;-53
2021/11/18 05:40:40;;;;;;;;;;;;;;;13.23;100.00;102537.50;5070257;28;19921;-54
2021/11/18 05:43:06;;;;;;;;;;;;;;;13.58;100.00;102535.41;5086481;28;20019;-50
2021/11/18 05:45:35;;;;;;;;;;;;;;;13.67;100.00;102546.13;5069625;28;19920;-51
2021/11/18 05:48:09;;;;;;;;;;;;;;;13.43;100.00;102539.84;5069198;28;19920;-54
2021/11/18 05:50:35;;;;;;;;;;;;;;;13.39;100.00;102533.09;5069701;28;19917;-53
2021/11/18 05:53:01;;;;;;;;;;;;;;;13.59;100.00;102529.00;5052911;28;19952;-50
2021/11/18 05:55:28;;;;;;;;;;;;;;;13.51;100.00;102538.97;5052815;28;19988;-53
2021/11/18 05:57:54;;;;;;;;;;;;;;;13.72;100.00;102531.13;5054444;28;19920;-53
2021/11/18 06:00:21;;;;;;;;;;;;;;;13.97;100.00;102538.25;5069558;28;20373;-50
2021/11/18 06:02:49;;;;;;;;;;;;;;;13.54;100.00;102530.56;5086449;28;19924;-49
2021/11/18 06:05:15;;;;;;;;;;;;;;;13.66;100.00;102531.03;5052540;28;19917;-50
2021/11/18 06:07:41;;;;;;;;;;;;;;;13.94;100.00;102535.91;5069120;28;19927;-51
2021/11/18 06:10:08;;;;;;;;;;;;;;;13.65;100.00;102532.03;5053542;28;19913;-52
2021/11/18 06:12:34;;;;;;;;;;;;;;;13.70;100.00;102535.84;5085959;28;19929;-51
2021/11/18 06:14:59;;;;;;;;;;;;;;;13.65;100.00;102535.53;5084739;28;19939;-50
2021/11/18 06:17:24;;;;;;;;;;;;;;;13.62;100.00;102543.97;5085814;28;20003;-52
2021/11/18 06:19:51;;;;;;;;;;;;;;;13.36;100.00;102538.78;5086585;28;19913;-50
2021/11/18 06:22:19;;;;;;;;;;;;;;;13.95;100.00;102553.72;5052090;28;20233;-54
2021/11/18 06:25:12;;;;;;;;;;;;;;;13.86;100.00;102552.94;5052229;28;19920;-51
2021/11/18 06:27:39;;;;;;;;;;;;;;;13.66;100.00;102555.22;5052187;28;19917;-51
2021/11/18 06:30:06;;;;;;;;;;;;;;;14.16;100.00;102556.66;5086251;28;19951;-51
2021/11/18 06:32:32;;;;;;;;;;;;;;;14.28;100.00;102564.28;5086230;28;20329;-49
2021/11/18 06:34:57;;;;;;;;;;;;;;;14.27;100.00;102566.16;5085971;28;20069;-50
2021/11/18 06:37:23;;;;;;;;;;;;;;;14.19;100.00;102574.28;5053021;28;19924;-48
2021/11/18 06:39:48;;;;;;;;;;;;;;;13.99;100.00;102568.50;5069019;28;19916;-51
2021/11/18 06:42:14;;;;;;;;;;;;;;;13.60;100.00;102571.00;5068367;28;20244;-54
2021/11/18 06:44:49;;;;;;;;;;;;;;;13.66;100.00;102555.22;5067392;28;19927;-52
2021/11/18 06:47:17;;;;;;;;;;;;;;;13.55;100.00;102548.38;5051956;28;19927;-56
2021/11/18 06:49:43;;;;;;;;;;;;;;;13.76;100.00;102550.44;5052076;28;19920;-55
2021/11/18 06:52:11;;;;;;;;;;;;;;;13.83;100.00;102548.72;5086494;28;19924;-54
2021/11/18 06:54:36;;;;;;;;;;;;;;;14.07;100.00;102562.25;5052026;28;19970;-54
2021/11/18 06:57:02;;;;;;;;;;;;;;;13.84;100.00;102558.50;5051512;28;19917;-50
2021/11/18 06:59:27;;;;;;;;;;;;;;;13.81;100.00;102560.69;5051252;28;19923;-54
2021/11/18 07:01:56;;;;;;;;;;;;;;;13.87;100.00;102570.75;5052525;28;19921;-51
2021/11/18 07:04:22;;;;;;;;;;;;;;;13.31;100.00;102580.47;5085756;28;19991;-53
2021/11/18 07:06:47;;;;;;;;;;;;;;;13.86;100.00;102577.13;5068701;28;19924;-52
2021/11/18 07:09:18;;;;;;;;;;;;;;;13.91;100.00;102583.69;5052058;28;20370;-55
2021/11/18 07:12:06;;;;;;;;;;;;;;;13.54;100.00;102576.25;5084713;28;19917;-53
2021/11/18 07:14:33;;;;;;;;;;;;;;;13.41;100.00;102585.66;5085263;28;20288;-52
2021/11/18 07:16:59;;;;;;;;;;;;;;;13.43;100.00;102590.91;5085062;28;20301;-52
2021/11/18 07:19:24;;;;;;;;;;;;;;;13.88;100.00;102602.00;5051498;28;19924;-53
2021/11/18 07:21:50;;;;;;;;;;;;;;;14.08;100.00;102605.13;5051616;28;19921;-54
2021/11/18 07:24:17;;;;;;;;;;;;;;;13.66;100.00;102609.81;5085336;28;19923;-56
2021/11/18 07:26:44;;;;;;;;;;;;;;;13.93;100.00;102606.88;5053518;28;20022;-51
2021/11/18 07:29:10;;;;;;;;;;;;;;;13.77;100.00;102613.97;5055464;28;19975;-51
2021/11/18 07:31:37;;;;;;;;;;;;;;;13.53;100.00;102610.34;5089537;28;19931;-54
2021/11/18 07:34:02;;;;;;;;;;;;;;;13.74;100.00;102609.78;5089772;28;19917;-54
2021/11/18 07:36:29;;;;;;;;;;;;;;;13.91;100.00;102607.03;5089199;28;20376;-50
2021/11/18 07:38:56;;;;;;;;;;;;;;;14.19;100.00;102611.97;5088466;28;19955;-55
2021/11/18 07:41:22;;;;;;;;;;;;;;;13.54;100.00;102611.19;5055361;28;19966;-54
2021/11/18 07:44:07;;;;;;;;;;;;;;;13.60;100.00;102618.56;5083370;28;19924;-55
2021/11/18 07:46:56;;;;;;;;;;;;;;;13.83;100.00;102624.03;5036479;28;20361;-49
2021/11/18 07:49:25;;;;;;;;;;;;;;;14.31;100.00;102618.59;5071614;28;20019;-51
2021/11/18 07:51:50;;;;;;;;;;;;;;;13.93;100.00;102625.69;5056369;28;20424;-53
2021/11/18 07:54:17;;;;;;;;;;;;;;;14.03;100.00;102626.31;5072627;28;20011;-54
2021/11/18 07:56:45;;;;;;;;;;;;;;;14.03;100.00;102623.63;5088760;28;19917;-54
2021/11/18 07:59:11;;;;;;;;;;;;;;;14.02;100.00;102620.09;5055384;28;19920;-54
2021/11/18 08:01:39;;;;;;;;;;;;;;;14.29;100.00;102623.34;5055760;28;19916;-53
2021/11/18 08:04:07;;;;;;;;;;;;;;;14.12;100.00;102614.50;5055750;28;19928;-53
2021/11/18 08:06:38;;;;;;;;;;;;;;;14.29;100.00;102611.72;5089068;28;19921;-51
2021/11/18 08:09:10;;;;;;;;;;;;;;;14.26;100.00;102612.06;5071133;28;19924;-52
2021/11/18 08:11:45;;;;;;;;;;;;;;;14.47;100.00;102633.81;5055245;28;20356;-55
2021/11/18 08:14:10;;;;;;;;;;;;;;;14.24;100.00;102630.25;5088422;28;19916;-55
2021/11/18 08:16:36;;;;;;;;;;;;;;;13.72;100.00;102627.09;5089209;28;19928;-54
2021/11/18 08:19:04;;;;;;;;;;;;;;;13.71;100.00;102630.81;5089212;28;19913;-55
2021/11/18 08:21:30;;;;;;;;;;;;;;;13.56;100.00;102626.13;5089361;28;19916;-56
2021/11/18 08:23:57;;;;;;;;;;;;;;;13.85;100.00;102616.66;5056752;28;19920;-50
2021/11/18 08:26:25;;;;;;;;;;;;;;;13.84;100.00;102620.34;5056367;28;19921;-54
2021/11/18 08:28:52;;;;;;;;;;;;;;;14.07;100.00;102610.66;5088267;28;19920;-54
2021/11/18 08:31:18;;;;;;;;;;;;;;;13.81;100.00;102609.09;5071435;28;19920;-52
2021/11/18 08:34:13;;;;;;;;;;;;;;;13.79;100.00;102611.94;5036319;28;19920;-53
2021/11/18 08:36:39;;;;;;;;;;;;;;;14.46;100.00;102610.63;5054858;28;19990;-51
2021/11/18 08:39:07;;;;;;;;;;;;;;;14.34;100.00;102614.75;5053887;28;19929;-53
2021/11/18 08:41:33;;;;;;;;;;;;;;;14.30;100.00;102613.41;5055054;28;20288;-53
2021/11/18 08:44:01;;;;;;;;;;;;;;;14.52;100.00;102616.28;5086953;28;19921;-51
2021/11/18 08:46:28;;;;;;;;;;;;;;;14.15;100.00;102614.16;5054052;28;19971;-54
2021/11/18 08:49:00;;;;;;;;;;;;;;;14.76;100.00;102616.19;5053991;28;19924;-51
2021/11/18 08:51:30;;;;;;;;;;;;;;;14.63;100.00;102615.91;5054410;28;20222;-52
2021/11/18 08:53:57;;;;;;;;;;;;;;;15.10;100.00;102610.50;5055134;28;20020;-48
2021/11/18 08:56:23;;;;;;;;;;;;;;;15.43;100.00;102613.72;5070347;28;19916;-50
2021/11/18 08:58:51;;;;;;;;;;;;;;;16.03;100.00;102605.66;5037036;28;20263;-50
2021/11/18 09:01:21;;;;;;;;;;;;;;;16.54;100.00;102606.63;5087666;28;19916;-53
2021/11/18 09:03:47;;;;;;;;;;;;;;;16.84;100.00;102619.13;5087920;28;19971;-50
2021/11/18 09:06:16;;;;;;;;;;;;;;;16.57;100.00;102629.69;5054378;28;19966;-52
2021/11/18 09:08:47;;;;;;;;;;;;;;;17.13;100.00;102625.47;5054009;28;19917;-53
2021/11/18 09:11:13;;;;;;;;;;;;;;;17.27;100.00;102621.00;5087042;28;19924;-52
2021/11/18 09:13:44;;;;;;;;;;;;;;;17.72;100.00;102634.16;5086564;28;19928;-52
2021/11/18 09:16:10;;;;;;;;;;;;;;;18.06;100.00;102640.63;5054100;28;19917;-52
2021/11/18 09:18:40;;;;;;;;;;;;;;;18.17;100.00;102650.03;5053421;28;20345;-54
2021/11/18 09:21:05;;;;;;;;;;;;;;;18.29;100.00;102656.53;5087675;28;20301;-51
2021/11/18 09:23:34;;;;;;;;;;;;;;;17.74;100.00;102646.47;5086413;28;19950;-52
2021/11/18 09:26:03;;;;;;;;;;;;;;;18.65;100.00;102643.69;5053520;28;19916;-50
2021/11/18 09:28:29;;;;;;;;;;;;;;;18.48;100.00;102649.50;5053259;28;19916;-50
2021/11/18 09:31:15;;;;;;;;;;;;;;;18.66;100.00;102655.38;5050169;28;19917;-49
2021/11/18 09:33:42;;;;;;;;;;;;;;;18.99;100.00;102669.00;5053359;28;19935;-50
2021/11/18 09:36:08;;;;;;;;;;;;;;;19.31;98.65;102673.81;5053111;28;19916;-53
2021/11/18 09:38:36;;;;;;;;;;;;;;;19.88;92.03;102671.41;5087136;28;19966;-53
2021/11/18 09:41:13;;;;;;;;;;;;;;;19.68;94.10;102674.16;5052719;28;19998;-49
2021/11/18 09:43:58;;;;;;;;;;;;;;;20.40;86.60;102670.59;5069524;28;19924;-52
2021/11/18 09:46:25;;;;;;;;;;;;;;;20.06;84.12;102669.91;5053724;28;20214;-53
2021/11/18 09:48:55;;;;;;;;;;;;;;;19.62;91.26;102664.16;5086140;28;19916;-52
2021/11/18 09:51:21;;;;;;;;;;;;;;;20.16;82.41;102673.00;5086240;28;20317;-51
2021/11/18 09:54:01;;;;;;;;;;;;;;;19.45;86.92;102691.72;5086316;28;19920;-51
2021/11/18 09:56:32;;;;;;;;;;;;;;;20.06;85.37;102686.19;5086280;28;19917;-49
2021/11/18 09:59:22;;;;;;;;;;;;;;;21.57;69.66;102679.34;5053082;28;19917;-50
2021/11/18 10:01:55;;;;;;;;;;;;;;;21.14;72.25;102674.72;5086422;28;20416;-52
2021/11/18 10:04:23;;;;;;;;;;;;;;;21.06;71.02;102676.69;5086050;28;19917;-52
2021/11/18 10:06:53;;;;;;;;;;;;;;;22.33;64.29;102675.56;5069675;28;19917;-55
2021/11/18 10:09:30;;;;;;;;;;;;;;;20.92;73.34;102666.94;5086928;28;20311;-52
2021/11/18 10:12:06;;;;;;;;;;;;;;;21.30;67.99;102674.16;5052136;28;19977;-54
2021/11/18 10:14:36;;;;;;;;;;;;;;;20.13;78.05;102670.72;5052508;28;19917;-52
2021/11/18 10:17:10;;;;;;;;;;;;;;;19.76;83.78;102673.09;5068598;28;19921;-56
2021/11/18 10:19:39;;;;;;;;;;;;;;;20.68;77.08;102682.16;5086399;28;19913;-52
2021/11/18 10:22:05;;;;;;;;;;;;;;;20.11;79.84;102672.81;5053500;28;19908;-52
2021/11/18 10:24:34;;;;;;;;;;;;;;;20.99;72.55;102666.91;5052452;28;19924;-54
2021/11/18 10:27:09;;;;;;;;;;;;;;;22.26;65.50;102674.81;5053575;28;20337;-55
2021/11/18 10:29:37;;;;;;;;;;;;;;;23.22;58.83;102679.47;5086171;28;19922;-54
2021/11/18 10:32:06;;;;;;;;;;;;;;;22.74;57.80;102681.31;5052894;28;19916;-53
2021/11/18 10:34:52;;;;;;;;;;;;;;;21.60;63.10;102680.81;5052434;28;20039;-54
2021/11/18 10:37:23;;;;;;;;;;;;;;;23.26;57.09;102677.97;5053616;28;19917;-53
2021/11/18 10:40:01;;;;;;;;;;;;;;;22.41;58.26;102677.97;5053216;28;20241;-50
2021/11/18 10:42:28;;;;;;;;;;;;;;;22.48;56.06;102670.56;5052813;28;20007;-54
2021/11/18 10:45:28;;;;;;;;;;;;;;;22.84;54.71;102670.66;5052927;28;19917;-52
2021/11/18 10:47:56;;;;;;;;;;;;;;;23.54;52.13;102672.84;5052823;28;19928;-52
2021/11/18 10:50:32;;;;;;;;;;;;;;;23.29;53.41;102665.75;5053041;28;19916;-53
2021/11/18 10:53:06;;;;;;;;;;;;;;;22.59;55.45;102658.03;5051588;28;20396;-51
2021/11/18 10:55:39;;;;;;;;;;;;;;;22.67;56.28;102654.16;5053039;28;20002;-55
2021/11/18 10:58:09;;;;;;;;;;;;;;;23.31;53.82;102659.00;5051481;28;20439;-55
2021/11/18 11:00:37;;;;;;;;;;;;;;;22.42;55.42;102652.38;5053184;28;19917;-54
2021/11/18 11:03:18;;;;;;;;;;;;;;;22.16;57.42;102662.59;5052795;28;19913;-54
2021/11/18 11:05:43;;;;;;;;;;;;;;;23.43;53.11;102655.41;5053016;28;19936;-55
2021/11/18 11:08:23;;;;;;;;;;;;;;;23.77;50.73;102650.16;5052655;28;19920;-52
2021/11/18 11:10:53;;;;;;;;;;;;;;;23.26;52.21;102647.94;5052280;28;19916;-54
2021/11/18 11:13:25;;;;;;;;;;;;;;;23.18;53.26;102638.22;5052812;28;20426;-54
2021/11/18 11:16:11;;;;;;;;;;;;;;;24.01;51.18;102641.91;5053089;28;20265;-54
2021/11/18 11:18:55;;;;;;;;;;;;;;;24.51;47.94;102637.63;5053040;28;19917;-52
2021/11/18 11:21:20;;;;;;;;;;;;;;;23.74;48.80;102634.22;5051472;28;19967;-54
2021/11/18 11:23:58;;;;;;;;;;;;;;;24.98;45.88;102641.16;5068319;28;19917;-52
2021/11/18 11:26:26;;;;;;;;;;;;;;;25.27;45.41;102644.63;5085841;28;19916;-55
2021/11/18 11:29:23;;;;;;;;;;;;;;;25.31;44.48;102640.28;5052930;28;19923;-53
2021/11/18 11:31:58;;;;;;;;;;;;;;;24.69;45.21;102630.28;5053100;28;19921;-53
2021/11/18 11:34:44;;;;;;;;;;;;;;;24.18;47.06;102631.84;5052684;28;19917;-55
2021/11/18 11:37:34;;;;;;;;;;;;;;;24.63;45.38;102629.38;5051733;28;19923;-60
2021/11/18 11:40:19;;;;;;;;;;;;;;;24.85;45.13;102628.66;5053115;28;19993;-55
2021/11/18 11:43:00;;;;;;;;;;;;;;;25.19;43.43;102626.72;5052943;28;19928;-55
2021/11/18 11:45:25;;;;;;;;;;;;;;;24.68;45.81;102631.38;5052787;28;19917;-53
2021/11/18 11:48:10;;;;;;;;;;;;;;;24.88;44.78;102625.41;5053378;28;19916;-51
2021/11/18 11:50:50;;;;;;;;;;;;;;;23.44;47.54;102647.00;5085045;28;19928;-55
2021/11/18 11:53:16;;;;;;;;;;;;;;;22.72;50.55;102629.72;5085247;28;19991;-53
2021/11/18 11:55:41;;;;;;;;;;;;;;;23.39;50.23;102621.47;5052753;28;19966;-55
2021/11/18 11:58:10;;;;;;;;;;;;;;;23.78;47.54;102619.84;5052751;28;19924;-49
2021/11/18 12:00:48;;;;;;;;;;;;;;;23.38;48.80;102608.91;5051211;28;19917;-49
2021/11/18 12:03:29;;;;;;;;;;;;;;;23.12;49.97;102613.75;5052541;28;19929;-50
2021/11/18 12:06:12;;;;;;;;;;;;;;;23.78;47.72;102613.56;5051960;28;19920;-54
2021/11/18 12:08:37;;;;;;;;;;;;;;;23.90;47.51;102608.88;5085275;28;19970;-55
2021/11/18 12:11:09;;;;;;;;;;;;;;;23.78;46.99;102621.78;5084631;28;19921;-53
2021/11/18 12:13:39;;;;;;;;;;;;;;;23.62;47.33;102615.13;5053344;28;19917;-53
2021/11/18 12:16:15;;;;;;;;;;;;;;;22.73;52.06;102600.56;5055525;28;20010;-52
2021/11/18 12:18:46;;;;;;;;;;;;;;;22.24;55.85;102587.84;5055639;28;19916;-54
2021/11/18 12:21:12;;;;;;;;;;;;;;;23.06;52.08;102591.78;5054353;28;19979;-54
2021/11/18 12:23:55;;;;;;;;;;;;;;;23.22;49.66;102597.59;5055644;28;19967;-54
2021/11/18 12:26:21;;;;;;;;;;;;;;;22.75;50.89;102601.97;5055889;28;19917;-54
2021/11/18 12:29:09;;;;;;;;;;;;;;;22.88;51.68;102590.00;5055407;28;20336;-54
2021/11/18 12:31:35;;;;;;;;;;;;;;;22.41;52.85;102582.59;5045230;28;20308;-52
2021/11/18 12:34:06;;;;;;;;;;;;;;;22.77;52.10;102593.56;5055584;28;19916;-53
2021/11/18 12:36:48;;;;;;;;;;;;;;;22.50;53.03;102583.09;5087676;28;19922;-54
2021/11/18 12:39:16;;;;;;;;;;;;;;;22.62;52.97;102577.69;5087548;28;20336;-53